createdAt,value
2022-11-23T00:01:23.831Z,2.27
2022-11-23T00:04:47.453Z,2.17
2022-11-23T00:08:11.151Z,2.50
2022-11-23T00:11:36.104Z,2.70
2022-11-23T00:15:01.212Z,2.37
2022-11-23T00:18:24.975Z,2.03
2022-11-23T00:21:48.629Z,3.20
2022-11-23T00:25:12.258Z,2.30
2022-11-23T00:28:38.698Z,2.60
2022-11-23T00:32:03.672Z,2.50
2022-11-23T00:35:27.477Z,2.77
2022-11-23T00:38:54.167Z,2.50
2022-11-23T00:42:17.723Z,2.40
2022-11-23T00:45:41.396Z,2.27
2022-11-23T00:49:06.747Z,2.03
2022-11-23T00:52:30.460Z,2.43
2022-11-23T00:55:54.460Z,2.40
2022-11-23T00:59:18.096Z,2.70
2022-11-23T01:02:41.728Z,2.63
2022-11-23T01:06:11.371Z,2.43
2022-11-23T01:09:35.181Z,2.10
2022-11-23T01:12:58.798Z,2.37
2022-11-23T01:16:24.847Z,2.10
2022-11-23T01:19:48.531Z,2.00
2022-11-23T01:23:13.569Z,2.10
2022-11-23T01:26:38.608Z,2.50
2022-11-23T01:30:02.379Z,2.10
2022-11-23T01:33:26.209Z,2.13
2022-11-23T01:36:49.823Z,2.27
2022-11-23T01:40:15.157Z,1.87
2022-11-23T01:43:38.941Z,2.20
2022-11-23T01:47:04.674Z,2.17
2022-11-23T01:50:28.418Z,2.57
2022-11-23T01:53:55.323Z,2.33
2022-11-23T01:57:24.696Z,1.80
2022-11-23T02:00:49.686Z,1.63
2022-11-23T02:04:20.710Z,2.23
2022-11-23T02:07:44.680Z,2.13
2022-11-23T02:11:12.753Z,2.30
2022-11-23T02:14:37.922Z,2.50
2022-11-23T02:18:05.004Z,2.40
2022-11-23T02:21:29.468Z,2.23
2022-11-23T02:24:56.192Z,2.20
2022-11-23T02:28:28.204Z,2.03
2022-11-23T02:31:51.892Z,2.20
2022-11-23T02:35:15.536Z,2.20
2022-11-23T02:38:39.973Z,2.27
2022-11-23T02:42:03.564Z,2.27
2022-11-23T02:45:38.322Z,2.00
2022-11-23T02:49:01.989Z,2.93
2022-11-23T02:52:25.611Z,2.43
2022-11-23T02:55:49.357Z,2.03
2022-11-23T02:59:14.733Z,2.40
2022-11-23T03:02:41.516Z,1.97
2022-11-23T03:06:08.474Z,2.37
2022-11-23T03:09:33.104Z,1.83
2022-11-23T03:12:57.765Z,2.40
2022-11-23T03:16:23.010Z,2.07
2022-11-23T03:19:48.164Z,2.07
2022-11-23T03:23:11.905Z,2.23
2022-11-23T03:26:36.889Z,2.50
2022-11-23T03:30:08.368Z,2.50
2022-11-23T03:33:32.701Z,3.60
2022-11-23T03:36:57.826Z,3.63
2022-11-23T03:40:22.070Z,2.87
2022-11-23T03:44:05.855Z,2.40
2022-11-23T03:47:29.539Z,2.20
2022-11-23T03:50:53.173Z,2.30
2022-11-23T03:54:18.892Z,2.10
2022-11-23T03:57:42.796Z,2.50
2022-11-23T04:01:07.726Z,2.30
2022-11-23T04:04:31.688Z,2.40
2022-11-23T04:08:01.968Z,2.07
2022-11-23T04:11:27.807Z,2.30
2022-11-23T04:14:51.439Z,2.10
2022-11-23T04:18:15.274Z,1.63
2022-11-23T04:21:39.292Z,2.53
2022-11-23T04:25:03.309Z,2.50
2022-11-23T04:28:29.149Z,2.00
2022-11-23T04:31:53.747Z,2.60
2022-11-23T04:35:18.416Z,2.50
2022-11-23T04:38:45.802Z,2.70
2022-11-23T04:42:13.375Z,2.63
2022-11-23T04:45:43.986Z,1.97
2022-11-23T04:49:16.361Z,1.97
2022-11-23T04:52:40.601Z,2.40
2022-11-23T04:56:10.237Z,2.00
2022-11-23T04:59:36.248Z,1.77
2022-11-23T05:03:01.886Z,3.90
2022-11-23T05:06:28.825Z,2.37
2022-11-23T05:09:52.397Z,1.93
2022-11-23T05:13:17.963Z,2.23
2022-11-23T05:16:42.511Z,2.80
2022-11-23T05:20:09.093Z,1.93
2022-11-23T05:23:36.923Z,3.13
2022-11-23T05:27:00.597Z,2.43
2022-11-23T05:30:25.206Z,2.30
2022-11-23T05:33:49.095Z,1.77
2022-11-23T05:37:19.353Z,2.07
2022-11-23T05:40:58.228Z,1.80
2022-11-23T05:44:22.178Z,2.10
2022-11-23T05:47:51.276Z,2.40
2022-11-23T05:51:20.365Z,2.33
2022-11-23T05:54:47.375Z,2.00
2022-11-23T05:58:11.904Z,1.90
2022-11-23T06:01:35.697Z,2.80
2022-11-23T06:05:00.690Z,2.33
2022-11-23T06:08:34.722Z,2.13
2022-11-23T06:11:59.751Z,2.40
2022-11-23T06:15:23.337Z,2.30
2022-11-23T06:18:47.545Z,2.77
2022-11-23T06:22:12.857Z,2.20
2022-11-23T06:25:48.382Z,2.47
2022-11-23T06:29:22.632Z,2.30
2022-11-23T06:32:46.320Z,2.70
2022-11-23T06:36:12.353Z,2.83
2022-11-23T06:39:42.086Z,2.53
2022-11-23T06:43:05.832Z,2.83
2022-11-23T06:46:37.186Z,2.20
2022-11-23T06:50:01.012Z,2.30
2022-11-23T06:53:26.910Z,2.30
2022-11-23T06:56:55.622Z,2.60
2022-11-23T07:00:20.291Z,1.80
2022-11-23T07:03:48.514Z,2.60
2022-11-23T07:07:19.404Z,2.27
2022-11-23T07:10:50.526Z,2.50
2022-11-23T07:14:14.657Z,2.47
2022-11-23T07:17:42.748Z,2.60
2022-11-23T07:21:08.631Z,2.30
2022-11-23T07:24:38.692Z,2.80
2022-11-23T07:28:07.646Z,2.10
2022-11-23T07:31:31.453Z,2.13
2022-11-23T07:34:55.388Z,2.50
2022-11-23T07:38:20.655Z,3.23
2022-11-23T07:41:47.329Z,2.23
2022-11-23T07:45:18.774Z,2.80
2022-11-23T07:48:45.467Z,2.27
2022-11-23T07:52:09.086Z,2.83
2022-11-23T07:55:34.481Z,2.30
2022-11-23T07:58:58.092Z,2.40
2022-11-23T08:02:22.155Z,2.77
2022-11-23T08:05:45.889Z,2.60
2022-11-23T08:09:09.445Z,2.53
2022-11-23T08:12:34.526Z,2.53
2022-11-23T08:15:58.229Z,3.03
2022-11-23T08:19:22.065Z,3.23
2022-11-23T08:22:45.654Z,3.10
2022-11-23T08:26:13.681Z,2.40
2022-11-23T08:29:39.068Z,2.90
2022-11-23T08:33:04.418Z,3.97
2022-11-23T08:36:28.305Z,2.50
2022-11-23T08:39:51.940Z,2.30
2022-11-23T08:43:15.607Z,2.83
2022-11-23T08:46:40.914Z,2.60
2022-11-23T08:50:04.902Z,3.10
2022-11-23T08:53:28.787Z,3.53
2022-11-23T08:56:52.690Z,3.40
2022-11-23T09:00:17.724Z,3.07
2022-11-23T09:03:43.694Z,2.43
2022-11-23T09:07:07.822Z,3.07
2022-11-23T09:10:31.430Z,2.60
2022-11-23T09:13:55.024Z,2.63
2022-11-23T09:17:18.665Z,2.90
2022-11-23T09:20:43.742Z,2.87
2022-11-23T09:24:08.612Z,3.07
2022-11-23T09:27:32.646Z,2.60
2022-11-23T09:30:57.134Z,3.03
2022-11-23T09:34:20.906Z,3.17
2022-11-23T09:37:45.846Z,3.20
2022-11-23T09:41:26.170Z,2.60
2022-11-23T09:45:05.148Z,2.77
2022-11-23T09:48:51.053Z,2.63
2022-11-23T09:52:18.063Z,2.80
2022-11-23T09:55:45.516Z,3.20
2022-11-23T09:59:18.648Z,2.30
2022-11-23T10:02:43.037Z,3.80
2022-11-23T10:06:17.482Z,3.07
2022-11-23T10:09:53.538Z,3.50
2022-11-23T10:13:36.652Z,2.93
2022-11-23T10:17:05.189Z,3.20
2022-11-23T10:20:45.300Z,3.20
2022-11-23T10:24:19.232Z,2.70
2022-11-23T10:27:44.929Z,2.50
2022-11-23T10:31:15.074Z,3.00
2022-11-23T10:34:50.599Z,3.30
2022-11-23T10:38:19.084Z,3.00
2022-11-23T10:41:44.989Z,2.90
2022-11-23T10:45:20.466Z,2.63
2022-11-23T10:48:47.422Z,2.83
2022-11-23T10:52:30.940Z,2.40
2022-11-23T10:55:58.105Z,3.00
2022-11-23T10:59:33.662Z,3.33
2022-11-23T11:02:59.166Z,3.20
2022-11-23T11:06:25.929Z,3.20
2022-11-23T11:09:54.132Z,3.27
2022-11-23T11:13:26.221Z,2.83
2022-11-23T11:16:52.136Z,3.30
2022-11-23T11:20:33.465Z,3.17
2022-11-23T11:24:02.356Z,2.97
2022-11-23T11:27:29.514Z,3.50
2022-11-23T11:31:09.222Z,3.40
2022-11-23T11:34:39.872Z,3.73
2022-11-23T11:38:09.733Z,3.40
2022-11-23T11:41:35.689Z,3.03
2022-11-23T11:45:02.405Z,3.20
2022-11-23T11:48:31.594Z,4.27
2022-11-23T11:51:59.428Z,3.73
2022-11-23T11:55:27.606Z,3.00
2022-11-23T11:58:59.187Z,2.63
2022-11-23T12:02:26.160Z,3.43
2022-11-23T12:05:52.302Z,3.77
2022-11-23T12:09:20.054Z,3.60
2022-11-23T12:12:44.369Z,3.87
2022-11-23T12:16:23.749Z,3.37
2022-11-23T12:19:53.291Z,3.87
2022-11-23T12:23:30.406Z,3.57
2022-11-23T12:27:01.031Z,3.40
2022-11-23T12:30:31.379Z,3.90
2022-11-23T12:34:17.387Z,3.33
2022-11-23T12:37:49.701Z,4.20
2022-11-23T12:41:24.245Z,3.50
2022-11-23T12:45:04.019Z,3.77
2022-11-23T12:48:38.548Z,3.77
2022-11-23T12:52:19.102Z,3.73
2022-11-23T12:55:53.935Z,3.33
2022-11-23T12:59:20.876Z,3.27
2022-11-23T13:03:21.474Z,3.97
2022-11-23T13:07:42.108Z,4.63
2022-11-23T13:11:14.862Z,4.93
2022-11-23T13:14:49.815Z,3.87
2022-11-23T13:18:26.379Z,3.37
2022-11-23T13:21:57.621Z,3.77
2022-11-23T13:25:26.263Z,4.30
2022-11-23T13:28:51.109Z,2.90
2022-11-23T13:32:43.608Z,4.10
2022-11-23T13:36:18.306Z,4.63
2022-11-23T13:40:05.796Z,3.93
2022-11-23T13:43:33.321Z,4.10
2022-11-23T13:47:00.835Z,3.43
2022-11-23T13:50:24.874Z,3.87
2022-11-23T13:53:55.861Z,3.27
2022-11-23T13:57:20.137Z,4.60
2022-11-23T14:00:51.039Z,3.87
2022-11-23T14:04:21.942Z,3.97
2022-11-23T14:07:47.015Z,2.87
2022-11-23T14:11:15.481Z,4.00
2022-11-23T14:14:51.150Z,4.47
2022-11-23T14:18:40.321Z,4.23
2022-11-23T14:22:14.855Z,3.27
2022-11-23T14:25:51.688Z,3.70
2022-11-23T14:29:40.664Z,3.70
2022-11-23T14:33:17.736Z,3.57
2022-11-23T14:36:51.280Z,3.43
2022-11-23T14:40:21.570Z,4.30
2022-11-23T14:43:47.396Z,4.47
2022-11-23T14:47:12.904Z,4.10
2022-11-23T14:50:36.607Z,3.40
2022-11-23T14:54:04.118Z,3.80
2022-11-23T14:57:31.957Z,4.40
2022-11-23T15:01:00.508Z,4.93
2022-11-23T15:04:27.109Z,4.13
2022-11-23T15:07:55.296Z,3.50
2022-11-23T15:11:23.902Z,4.57
2022-11-23T15:14:49.836Z,4.33
2022-11-23T15:18:15.997Z,3.77
2022-11-23T15:21:53.841Z,3.33
2022-11-23T15:25:20.897Z,3.70
2022-11-23T15:28:46.016Z,4.03
2022-11-23T15:32:33.404Z,4.03
2022-11-23T15:35:58.811Z,4.67
2022-11-23T15:39:24.608Z,3.90
2022-11-23T15:42:49.895Z,3.60
2022-11-23T15:46:15.124Z,3.67
2022-11-23T15:49:39.574Z,4.10
2022-11-23T15:53:03.875Z,3.23
2022-11-23T15:56:30.765Z,4.30
2022-11-23T15:59:58.950Z,3.80
2022-11-23T16:03:31.273Z,5.93
2022-11-23T16:06:55.997Z,4.43
2022-11-23T16:10:21.899Z,4.20
2022-11-23T16:13:45.838Z,5.13
2022-11-23T16:17:19.698Z,4.60
2022-11-23T16:20:46.498Z,4.60
2022-11-23T16:24:21.073Z,4.47
2022-11-23T16:27:44.628Z,4.47
2022-11-23T16:31:23.111Z,4.77
2022-11-23T16:34:46.792Z,4.07
2022-11-23T16:38:12.536Z,4.17
2022-11-23T16:41:36.302Z,4.20
2022-11-23T16:45:00.373Z,4.40
2022-11-23T16:48:41.476Z,4.27
2022-11-23T16:52:05.277Z,4.63
2022-11-23T16:55:30.493Z,4.70
2022-11-23T16:58:55.178Z,4.60
2022-11-23T17:02:19.557Z,6.30
2022-11-23T17:05:43.365Z,4.10
2022-11-23T17:09:08.274Z,6.00
2022-11-23T17:12:33.750Z,4.70
2022-11-23T17:15:57.990Z,3.80
2022-11-23T17:19:23.165Z,5.80
2022-11-23T17:22:51.401Z,4.00
2022-11-23T17:26:34.145Z,4.97
2022-11-23T17:30:02.300Z,3.60
2022-11-23T17:33:29.008Z,3.73
2022-11-23T17:36:54.291Z,4.53
2022-11-23T17:40:20.019Z,5.03
2022-11-23T17:43:43.912Z,4.30
2022-11-23T17:47:18.841Z,3.47
2022-11-23T17:50:42.408Z,4.17
2022-11-23T17:54:06.019Z,3.73
2022-11-23T17:57:29.686Z,4.10
2022-11-23T18:00:55.895Z,4.53
2022-11-23T18:04:20.930Z,3.83
2022-11-23T18:07:44.687Z,4.40
2022-11-23T18:11:08.959Z,4.57
2022-11-23T18:14:32.948Z,3.97
2022-11-23T18:18:00.257Z,4.57
2022-11-23T18:21:29.519Z,4.47
2022-11-23T18:24:53.163Z,4.67
2022-11-23T18:28:18.660Z,4.80
2022-11-23T18:31:42.436Z,5.13
2022-11-23T18:35:06.976Z,4.53
2022-11-23T18:38:32.310Z,4.10
2022-11-23T18:41:58.869Z,4.93
2022-11-23T18:45:25.250Z,4.83
2022-11-23T18:48:50.072Z,5.37
2022-11-23T18:52:13.942Z,5.23
2022-11-23T18:55:38.880Z,5.90
2022-11-23T18:59:02.690Z,4.60
2022-11-23T19:02:26.363Z,4.50
2022-11-23T19:05:49.862Z,4.20
2022-11-23T19:09:15.217Z,4.37
2022-11-23T19:12:40.202Z,6.47
2022-11-23T19:16:09.632Z,4.80
2022-11-23T19:19:33.715Z,4.00
2022-11-23T19:22:57.482Z,3.63
2022-11-23T19:26:21.485Z,4.60
2022-11-23T19:29:46.392Z,4.40
2022-11-23T19:33:10.649Z,4.50
2022-11-23T19:36:36.358Z,3.60
2022-11-23T19:40:00.044Z,3.40
2022-11-23T19:43:23.672Z,3.23
2022-11-23T19:46:48.577Z,3.83
2022-11-23T19:50:12.108Z,3.20
2022-11-23T19:53:37.284Z,3.73
2022-11-23T19:57:01.008Z,3.60
2022-11-23T20:00:24.641Z,4.33
2022-11-23T20:03:51.902Z,4.17
2022-11-23T20:07:15.470Z,4.00
2022-11-23T20:10:39.099Z,4.93
2022-11-23T20:14:03.079Z,4.27
2022-11-23T20:17:27.082Z,4.10
2022-11-23T20:20:51.962Z,3.43
2022-11-23T20:24:15.742Z,3.90
2022-11-23T20:27:40.685Z,4.50
2022-11-23T20:31:05.020Z,3.80
2022-11-23T20:34:29.423Z,3.40
2022-11-23T20:37:54.841Z,3.87
2022-11-23T20:41:20.342Z,3.27
2022-11-23T20:44:44.452Z,4.17
2022-11-23T20:48:08.484Z,5.43
2022-11-23T20:51:32.715Z,3.20
2022-11-23T20:54:57.953Z,3.53
2022-11-23T20:58:21.448Z,3.80
2022-11-23T21:01:45.641Z,4.60
2022-11-23T21:05:10.311Z,4.30
2022-11-23T21:08:38.038Z,2.47
2022-11-23T21:12:23.778Z,4.00
2022-11-23T21:15:47.628Z,3.40
2022-11-23T21:19:11.867Z,3.90
2022-11-23T21:22:36.505Z,3.50
2022-11-23T21:26:04.999Z,4.47
2022-11-23T21:29:31.078Z,4.00
2022-11-23T21:32:55.616Z,3.37
2022-11-23T21:36:19.800Z,3.47
2022-11-23T21:39:52.483Z,3.10
2022-11-23T21:43:17.077Z,2.80
2022-11-23T21:46:43.402Z,3.10
2022-11-23T21:50:08.533Z,2.70
2022-11-23T21:53:32.824Z,3.07
2022-11-23T21:56:56.389Z,3.00
2022-11-23T22:00:20.392Z,2.87
2022-11-23T22:03:48.670Z,2.80
2022-11-23T22:07:12.445Z,3.07
2022-11-23T22:10:36.199Z,2.90
2022-11-23T22:14:01.576Z,3.30
2022-11-23T22:17:25.225Z,2.67
2022-11-23T22:20:50.244Z,2.80
2022-11-23T22:24:15.641Z,2.70
2022-11-23T22:27:39.493Z,3.00
2022-11-23T22:31:03.772Z,2.67
2022-11-23T22:34:29.693Z,3.27
2022-11-23T22:37:56.030Z,2.77
2022-11-23T22:41:19.709Z,2.73
2022-11-23T22:44:43.416Z,2.80
2022-11-23T22:48:07.324Z,2.40
2022-11-23T22:51:31.449Z,2.97
2022-11-23T22:54:56.583Z,3.60
2022-11-23T22:58:21.009Z,3.33
2022-11-23T23:01:44.885Z,3.47
2022-11-23T23:05:09.340Z,3.37
2022-11-23T23:08:33.450Z,3.13
2022-11-23T23:11:58.473Z,3.10
2022-11-23T23:15:22.317Z,2.93
2022-11-23T23:18:46.092Z,3.00
2022-11-23T23:22:09.785Z,3.00
2022-11-23T23:25:33.367Z,3.53
2022-11-23T23:29:00.245Z,3.50
2022-11-23T23:32:24.948Z,3.20
2022-11-23T23:35:48.791Z,2.77
2022-11-23T23:39:13.754Z,3.57
2022-11-23T23:42:39.819Z,3.87
2022-11-23T23:46:07.249Z,3.30
2022-11-23T23:49:31.504Z,3.20
2022-11-23T23:52:55.182Z,3.23
2022-11-23T23:56:21.028Z,3.00
2022-11-23T23:59:44.921Z,3.67
